sensor_id;sensor_type;location;lat;lon;timestamp;temperature;humidity
14144;DHT22;7152;48.348;10.980;2023-02-01T00:00:46;3.70;99.90
14144;DHT22;7152;48.348;10.980;2023-02-01T00:03:12;3.70;99.90
14144;DHT22;7152;48.348;10.980;2023-02-01T00:05:38;3.60;99.90
14144;DHT22;7152;48.348;10.980;2023-02-01T00:08:04;3.60;99.90
14144;DHT22;7152;48.348;10.980;2023-02-01T00:10:30;3.60;99.90
14144;DHT22;7152;48.348;10.980;2023-02-01T00:12:55;3.60;99.90
14144;DHT22;7152;48.348;10.980;2023-02-01T00:15:21;3.50;99.90
14144;DHT22;7152;48.348;10.980;2023-02-01T00:17:52;3.50;99.90
14144;DHT22;7152;48.348;10.980;2023-02-01T00:20:18;3.50;99.90
14144;DHT22;7152;48.348;10.980;2023-02-01T00:22:43;3.40;99.90
14144;DHT22;7152;48.348;10.980;2023-02-01T00:25:09;3.40;99.90
14144;DHT22;7152;48.348;10.980;2023-02-01T00:27:35;3.40;99.90
14144;DHT22;7152;48.348;10.980;2023-02-01T00:30:00;3.40;99.90
14144;DHT22;7152;48.348;10.980;2023-02-01T00:32:26;3.30;99.90
14144;DHT22;7152;48.348;10.980;2023-02-01T00:34:51;3.30;99.90
14144;DHT22;7152;48.348;10.980;2023-02-01T00:37:17;3.30;99.90
14144;DHT22;7152;48.348;10.980;2023-02-01T00:39:43;3.30;99.90
14144;DHT22;7152;48.348;10.980;2023-02-01T00:42:08;3.30;99.90
14144;DHT22;7152;48.348;10.980;2023-02-01T00:44:35;3.30;99.90
14144;DHT22;7152;48.348;10.980;2023-02-01T00:47:01;3.20;99.90
14144;DHT22;7152;48.348;10.980;2023-02-01T00:49:27;3.20;99.90
14144;DHT22;7152;48.348;10.980;2023-02-01T00:51:53;3.20;99.90
14144;DHT22;7152;48.348;10.980;2023-02-01T00:54:19;3.10;99.90
14144;DHT22;7152;48.348;10.980;2023-02-01T00:56:44;3.10;99.90
14144;DHT22;7152;48.348;10.980;2023-02-01T00:59:13;3.10;99.90
14144;DHT22;7152;48.348;10.980;2023-02-01T01:01:39;3.10;99.90
14144;DHT22;7152;48.348;10.980;2023-02-01T01:04:04;3.10;99.90
14144;DHT22;7152;48.348;10.980;2023-02-01T01:06:32;3.00;99.90
14144;DHT22;7152;48.348;10.980;2023-02-01T01:08:59;3.00;99.90
14144;DHT22;7152;48.348;10.980;2023-02-01T01:11:28;3.00;99.90
14144;DHT22;7152;48.348;10.980;2023-02-01T01:13:55;3.00;99.90
14144;DHT22;7152;48.348;10.980;2023-02-01T01:16:23;3.00;99.90
14144;DHT22;7152;48.348;10.980;2023-02-01T01:18:49;3.00;99.90
14144;DHT22;7152;48.348;10.980;2023-02-01T01:21:16;2.90;99.90
14144;DHT22;7152;48.348;10.980;2023-02-01T01:23:43;3.00;99.90
14144;DHT22;7152;48.348;10.980;2023-02-01T01:26:12;2.90;99.90
14144;DHT22;7152;48.348;10.980;2023-02-01T01:28:39;2.90;99.90
14144;DHT22;7152;48.348;10.980;2023-02-01T01:31:08;2.90;99.90
14144;DHT22;7152;48.348;10.980;2023-02-01T01:33:34;2.80;99.90
14144;DHT22;7152;48.348;10.980;2023-02-01T01:36:00;2.80;99.90
14144;DHT22;7152;48.348;10.980;2023-02-01T01:38:26;2.80;99.90
14144;DHT22;7152;48.348;10.980;2023-02-01T01:40:51;2.80;99.90
14144;DHT22;7152;48.348;10.980;2023-02-01T01:43:19;2.80;99.90
14144;DHT22;7152;48.348;10.980;2023-02-01T01:45:48;2.80;99.90
14144;DHT22;7152;48.348;10.980;2023-02-01T01:48:24;2.80;99.90
14144;DHT22;7152;48.348;10.980;2023-02-01T01:51:07;2.80;99.90
14144;DHT22;7152;48.348;10.980;2023-02-01T01:53:47;2.80;99.90
14144;DHT22;7152;48.348;10.980;2023-02-01T01:56:14;2.80;99.90
14144;DHT22;7152;48.348;10.980;2023-02-01T01:58:40;2.80;99.90
14144;DHT22;7152;48.348;10.980;2023-02-01T02:01:06;2.70;99.90
14144;DHT22;7152;48.348;10.980;2023-02-01T02:03:44;2.70;99.90
14144;DHT22;7152;48.348;10.980;2023-02-01T02:07:13;2.70;99.90
14144;DHT22;7152;48.348;10.980;2023-02-01T02:09:18;2.60;99.90
14144;DHT22;7152;48.348;10.980;2023-02-01T02:11:44;2.60;99.90
14144;DHT22;7152;48.348;10.980;2023-02-01T02:14:14;2.60;99.90
14144;DHT22;7152;48.348;10.980;2023-02-01T02:25:36;2.80;99.90
14144;DHT22;7152;48.348;10.980;2023-02-01T02:33:38;2.70;99.90
14144;DHT22;7152;48.348;10.980;2023-02-01T02:39:21;2.80;99.90
14144;DHT22;7152;48.348;10.980;2023-02-01T02:50:49;2.80;99.90
14144;DHT22;7152;48.348;10.980;2023-02-01T02:56:28;2.80;99.90
14144;DHT22;7152;48.348;10.980;2023-02-01T02:59:16;2.90;99.90
14144;DHT22;7152;48.348;10.980;2023-02-01T03:02:01;2.90;99.90
14144;DHT22;7152;48.348;10.980;2023-02-01T03:04:46;2.90;99.90
14144;DHT22;7152;48.348;10.980;2023-02-01T03:12:50;2.90;99.90
14144;DHT22;7152;48.348;10.980;2023-02-01T03:19:03;3.00;99.90
14144;DHT22;7152;48.348;10.980;2023-02-01T03:21:08;3.00;99.90
14144;DHT22;7152;48.348;10.980;2023-02-01T03:23:36;3.00;99.90
14144;DHT22;7152;48.348;10.980;2023-02-01T03:26:07;3.00;99.90
14144;DHT22;7152;48.348;10.980;2023-02-01T03:28:38;3.00;99.90
14144;DHT22;7152;48.348;10.980;2023-02-01T03:31:08;3.00;99.90
14144;DHT22;7152;48.348;10.980;2023-02-01T03:33:34;3.00;99.90
14144;DHT22;7152;48.348;10.980;2023-02-01T03:36:19;3.10;99.90
14144;DHT22;7152;48.348;10.980;2023-02-01T03:44:14;3.10;99.90
14144;DHT22;7152;48.348;10.980;2023-02-01T03:47:06;3.10;99.90
14144;DHT22;7152;48.348;10.980;2023-02-01T03:52:06;3.10;99.90
14144;DHT22;7152;48.348;10.980;2023-02-01T03:54:33;3.10;99.90
14144;DHT22;7152;48.348;10.980;2023-02-01T03:57:03;3.10;99.90
14144;DHT22;7152;48.348;10.980;2023-02-01T03:59:30;3.00;99.90
14144;DHT22;7152;48.348;10.980;2023-02-01T04:01:56;3.00;99.90
14144;DHT22;7152;48.348;10.980;2023-02-01T04:04:21;3.00;99.90
14144;DHT22;7152;48.348;10.980;2023-02-01T04:06:50;3.00;99.90
14144;DHT22;7152;48.348;10.980;2023-02-01T04:09:16;3.10;99.90
14144;DHT22;7152;48.348;10.980;2023-02-01T04:11:42;3.10;99.90
14144;DHT22;7152;48.348;10.980;2023-02-01T04:14:08;3.20;99.90
14144;DHT22;7152;48.348;10.980;2023-02-01T04:16:34;3.20;99.90
14144;DHT22;7152;48.348;10.980;2023-02-01T04:19:00;3.20;99.90
14144;DHT22;7152;48.348;10.980;2023-02-01T04:21:27;3.20;99.90
14144;DHT22;7152;48.348;10.980;2023-02-01T04:23:53;3.20;99.90
14144;DHT22;7152;48.348;10.980;2023-02-01T04:26:20;3.20;99.90
14144;DHT22;7152;48.348;10.980;2023-02-01T04:28:46;3.20;99.90
14144;DHT22;7152;48.348;10.980;2023-02-01T04:31:16;3.30;99.90
14144;DHT22;7152;48.348;10.980;2023-02-01T04:33:42;3.30;99.90
14144;DHT22;7152;48.348;10.980;2023-02-01T04:36:08;3.30;99.90
14144;DHT22;7152;48.348;10.980;2023-02-01T04:38:33;3.30;99.90
14144;DHT22;7152;48.348;10.980;2023-02-01T04:40:59;3.30;99.90
14144;DHT22;7152;48.348;10.980;2023-02-01T04:43:25;3.40;99.90
14144;DHT22;7152;48.348;10.980;2023-02-01T04:45:51;3.40;99.90
14144;DHT22;7152;48.348;10.980;2023-02-01T04:48:18;3.40;99.90
14144;DHT22;7152;48.348;10.980;2023-02-01T04:50:45;3.40;99.90
14144;DHT22;7152;48.348;10.980;2023-02-01T04:53:17;3.50;99.90
14144;DHT22;7152;48.348;10.980;2023-02-01T04:55:43;3.50;99.90
14144;DHT22;7152;48.348;10.980;2023-02-01T04:58:09;3.40;99.90
14144;DHT22;7152;48.348;10.980;2023-02-01T05:00:35;3.50;99.90
14144;DHT22;7152;48.348;10.980;2023-02-01T05:03:01;3.40;99.90
14144;DHT22;7152;48.348;10.980;2023-02-01T05:05:27;3.50;99.90
14144;DHT22;7152;48.348;10.980;2023-02-01T05:07:53;3.50;99.90
14144;DHT22;7152;48.348;10.980;2023-02-01T05:10:19;3.50;99.90
14144;DHT22;7152;48.348;10.980;2023-02-01T05:12:45;3.50;99.90
14144;DHT22;7152;48.348;10.980;2023-02-01T05:15:30;3.40;99.90
14144;DHT22;7152;48.348;10.980;2023-02-01T05:17:56;3.40;99.90
14144;DHT22;7152;48.348;10.980;2023-02-01T05:20:21;3.40;99.90
14144;DHT22;7152;48.348;10.980;2023-02-01T05:22:47;3.40;99.90
14144;DHT22;7152;48.348;10.980;2023-02-01T05:25:13;3.40;99.90
14144;DHT22;7152;48.348;10.980;2023-02-01T05:27:38;3.40;99.90
14144;DHT22;7152;48.348;10.980;2023-02-01T05:30:05;3.40;99.90
14144;DHT22;7152;48.348;10.980;2023-02-01T05:32:31;3.40;99.90
14144;DHT22;7152;48.348;10.980;2023-02-01T05:34:57;3.40;99.90
14144;DHT22;7152;48.348;10.980;2023-02-01T05:37:23;3.40;99.90
14144;DHT22;7152;48.348;10.980;2023-02-01T05:39:48;3.40;99.90
14144;DHT22;7152;48.348;10.980;2023-02-01T05:42:14;3.40;99.90
14144;DHT22;7152;48.348;10.980;2023-02-01T05:44:40;3.40;99.90
14144;DHT22;7152;48.348;10.980;2023-02-01T05:47:06;3.40;99.90
14144;DHT22;7152;48.348;10.980;2023-02-01T05:49:32;3.40;99.90
14144;DHT22;7152;48.348;10.980;2023-02-01T05:51:58;3.40;99.90
14144;DHT22;7152;48.348;10.980;2023-02-01T05:54:23;3.40;99.90
14144;DHT22;7152;48.348;10.980;2023-02-01T05:56:49;3.40;99.90
14144;DHT22;7152;48.348;10.980;2023-02-01T05:59:15;3.40;99.90
14144;DHT22;7152;48.348;10.980;2023-02-01T06:01:40;3.40;99.90
14144;DHT22;7152;48.348;10.980;2023-02-01T06:04:06;3.50;99.90
14144;DHT22;7152;48.348;10.980;2023-02-01T06:06:31;3.40;99.90
14144;DHT22;7152;48.348;10.980;2023-02-01T06:08:57;3.50;99.90
14144;DHT22;7152;48.348;10.980;2023-02-01T06:11:23;3.40;99.90
14144;DHT22;7152;48.348;10.980;2023-02-01T06:13:48;3.50;99.90
14144;DHT22;7152;48.348;10.980;2023-02-01T06:16:14;3.50;99.90
14144;DHT22;7152;48.348;10.980;2023-02-01T06:18:41;3.40;99.90
14144;DHT22;7152;48.348;10.980;2023-02-01T06:21:08;3.40;99.90
14144;DHT22;7152;48.348;10.980;2023-02-01T06:23:33;3.50;99.90
14144;DHT22;7152;48.348;10.980;2023-02-01T06:26:02;3.50;99.90
14144;DHT22;7152;48.348;10.980;2023-02-01T06:28:29;3.50;99.90
14144;DHT22;7152;48.348;10.980;2023-02-01T06:30:56;3.50;99.90
14144;DHT22;7152;48.348;10.980;2023-02-01T06:33:24;3.50;99.90
14144;DHT22;7152;48.348;10.980;2023-02-01T06:35:56;3.50;99.90
14144;DHT22;7152;48.348;10.980;2023-02-01T06:38:22;3.50;99.90
14144;DHT22;7152;48.348;10.980;2023-02-01T06:40:52;3.40;99.90
14144;DHT22;7152;48.348;10.980;2023-02-01T06:43:18;3.50;99.90
14144;DHT22;7152;48.348;10.980;2023-02-01T06:45:43;3.40;99.90
14144;DHT22;7152;48.348;10.980;2023-02-01T06:48:09;3.50;99.90
14144;DHT22;7152;48.348;10.980;2023-02-01T06:50:35;3.40;99.90
14144;DHT22;7152;48.348;10.980;2023-02-01T06:53:00;3.40;99.90
14144;DHT22;7152;48.348;10.980;2023-02-01T06:55:26;3.50;99.90
14144;DHT22;7152;48.348;10.980;2023-02-01T06:57:55;3.50;99.90
14144;DHT22;7152;48.348;10.980;2023-02-01T07:00:22;3.50;99.90
14144;DHT22;7152;48.348;10.980;2023-02-01T07:02:48;3.50;99.90
14144;DHT22;7152;48.348;10.980;2023-02-01T07:05:14;3.50;99.90
14144;DHT22;7152;48.348;10.980;2023-02-01T07:07:40;3.50;99.90
14144;DHT22;7152;48.348;10.980;2023-02-01T07:10:06;3.50;99.90
14144;DHT22;7152;48.348;10.980;2023-02-01T07:12:31;3.60;99.90
14144;DHT22;7152;48.348;10.980;2023-02-01T07:14:57;3.60;99.90
14144;DHT22;7152;48.348;10.980;2023-02-01T07:17:23;3.60;99.90
14144;DHT22;7152;48.348;10.980;2023-02-01T07:19:49;3.60;99.90
14144;DHT22;7152;48.348;10.980;2023-02-01T07:22:18;3.60;99.90
14144;DHT22;7152;48.348;10.980;2023-02-01T07:24:43;3.60;99.90
14144;DHT22;7152;48.348;10.980;2023-02-01T07:27:09;3.70;99.90
14144;DHT22;7152;48.348;10.980;2023-02-01T07:29:35;3.70;99.90
14144;DHT22;7152;48.348;10.980;2023-02-01T07:32:00;3.70;99.90
14144;DHT22;7152;48.348;10.980;2023-02-01T07:34:28;3.70;99.90
14144;DHT22;7152;48.348;10.980;2023-02-01T07:36:53;3.70;99.90
14144;DHT22;7152;48.348;10.980;2023-02-01T07:39:19;3.70;99.90
14144;DHT22;7152;48.348;10.980;2023-02-01T07:41:46;3.80;99.90
14144;DHT22;7152;48.348;10.980;2023-02-01T07:44:11;3.80;99.90
14144;DHT22;7152;48.348;10.980;2023-02-01T07:46:37;3.90;99.90
14144;DHT22;7152;48.348;10.980;2023-02-01T07:49:05;3.90;99.90
14144;DHT22;7152;48.348;10.980;2023-02-01T07:51:31;3.90;99.90
14144;DHT22;7152;48.348;10.980;2023-02-01T07:53:57;3.90;99.90
14144;DHT22;7152;48.348;10.980;2023-02-01T07:56:22;4.00;99.90
14144;DHT22;7152;48.348;10.980;2023-02-01T07:58:49;4.00;99.90
14144;DHT22;7152;48.348;10.980;2023-02-01T08:01:22;4.00;99.90
14144;DHT22;7152;48.348;10.980;2023-02-01T08:03:59;4.10;99.90
14144;DHT22;7152;48.348;10.980;2023-02-01T08:06:25;4.10;99.90
14144;DHT22;7152;48.348;10.980;2023-02-01T08:08:52;4.20;99.90
14144;DHT22;7152;48.348;10.980;2023-02-01T08:11:19;4.20;99.90
14144;DHT22;7152;48.348;10.980;2023-02-01T08:13:46;4.20;99.90
14144;DHT22;7152;48.348;10.980;2023-02-01T08:16:14;4.20;99.90
14144;DHT22;7152;48.348;10.980;2023-02-01T08:18:40;4.20;99.90
14144;DHT22;7152;48.348;10.980;2023-02-01T08:21:21;4.20;99.90
14144;DHT22;7152;48.348;10.980;2023-02-01T08:23:48;4.30;99.90
14144;DHT22;7152;48.348;10.980;2023-02-01T08:28:48;4.30;99.90
14144;DHT22;7152;48.348;10.980;2023-02-01T08:31:16;4.40;99.90
14144;DHT22;7152;48.348;10.980;2023-02-01T08:33:43;4.40;99.90
14144;DHT22;7152;48.348;10.980;2023-02-01T08:36:10;4.50;99.90
14144;DHT22;7152;48.348;10.980;2023-02-01T08:38:37;4.50;99.90
14144;DHT22;7152;48.348;10.980;2023-02-01T08:41:08;4.50;99.90
14144;DHT22;7152;48.348;10.980;2023-02-01T08:43:34;4.60;99.90
14144;DHT22;7152;48.348;10.980;2023-02-01T08:46:00;4.60;99.90
14144;DHT22;7152;48.348;10.980;2023-02-01T08:48:25;4.60;99.90
14144;DHT22;7152;48.348;10.980;2023-02-01T08:50:51;4.60;99.90
14144;DHT22;7152;48.348;10.980;2023-02-01T08:53:17;4.70;99.90
14144;DHT22;7152;48.348;10.980;2023-02-01T08:55:42;4.70;99.90
14144;DHT22;7152;48.348;10.980;2023-02-01T08:58:08;4.70;99.90
14144;DHT22;7152;48.348;10.980;2023-02-01T09:00:34;4.70;99.90
14144;DHT22;7152;48.348;10.980;2023-02-01T09:02:59;4.80;99.90
14144;DHT22;7152;48.348;10.980;2023-02-01T09:05:25;4.80;99.90
14144;DHT22;7152;48.348;10.980;2023-02-01T09:07:52;4.80;99.90
14144;DHT22;7152;48.348;10.980;2023-02-01T09:10:18;4.90;99.90
14144;DHT22;7152;48.348;10.980;2023-02-01T09:12:44;4.90;99.90
14144;DHT22;7152;48.348;10.980;2023-02-01T09:15:09;5.00;99.90
14144;DHT22;7152;48.348;10.980;2023-02-01T09:17:35;5.00;99.90
14144;DHT22;7152;48.348;10.980;2023-02-01T09:20:02;5.10;99.90
14144;DHT22;7152;48.348;10.980;2023-02-01T09:22:27;5.10;99.90
14144;DHT22;7152;48.348;10.980;2023-02-01T09:24:53;5.20;99.90
14144;DHT22;7152;48.348;10.980;2023-02-01T09:27:19;5.20;99.90
14144;DHT22;7152;48.348;10.980;2023-02-01T09:29:45;5.30;99.90
14144;DHT22;7152;48.348;10.980;2023-02-01T09:32:15;5.30;99.90
14144;DHT22;7152;48.348;10.980;2023-02-01T09:34:41;5.40;99.90
14144;DHT22;7152;48.348;10.980;2023-02-01T09:37:06;5.40;99.90
14144;DHT22;7152;48.348;10.980;2023-02-01T09:39:32;5.40;99.90
14144;DHT22;7152;48.348;10.980;2023-02-01T09:47:22;5.40;99.90
14144;DHT22;7152;48.348;10.980;2023-02-01T09:49:56;5.40;99.90
14144;DHT22;7152;48.348;10.980;2023-02-01T09:52:37;5.30;99.90
14144;DHT22;7152;48.348;10.980;2023-02-01T09:55:09;5.30;99.90
14144;DHT22;7152;48.348;10.980;2023-02-01T09:58:14;5.30;99.90
14144;DHT22;7152;48.348;10.980;2023-02-01T10:00:53;5.30;99.90
14144;DHT22;7152;48.348;10.980;2023-02-01T10:03:19;5.30;99.90
14144;DHT22;7152;48.348;10.980;2023-02-01T10:06:19;5.30;99.90
14144;DHT22;7152;48.348;10.980;2023-02-01T10:22:11;5.50;99.90
14144;DHT22;7152;48.348;10.980;2023-02-01T10:25:03;5.50;99.90
14144;DHT22;7152;48.348;10.980;2023-02-01T10:27:35;5.50;99.90
14144;DHT22;7152;48.348;10.980;2023-02-01T10:32:43;5.40;99.90
14144;DHT22;7152;48.348;10.980;2023-02-01T10:35:15;5.40;99.90
14144;DHT22;7152;48.348;10.980;2023-02-01T10:37:42;5.40;99.90
14144;DHT22;7152;48.348;10.980;2023-02-01T10:40:18;5.40;99.90
14144;DHT22;7152;48.348;10.980;2023-02-01T10:42:47;5.50;99.90
14144;DHT22;7152;48.348;10.980;2023-02-01T10:45:22;5.50;99.90
14144;DHT22;7152;48.348;10.980;2023-02-01T10:47:51;5.50;99.90
14144;DHT22;7152;48.348;10.980;2023-02-01T10:50:33;5.50;99.90
14144;DHT22;7152;48.348;10.980;2023-02-01T10:53:05;5.50;99.90
14144;DHT22;7152;48.348;10.980;2023-02-01T10:58:05;5.40;99.90
14144;DHT22;7152;48.348;10.980;2023-02-01T11:00:57;5.40;99.90
14144;DHT22;7152;48.348;10.980;2023-02-01T11:03:44;5.40;99.90
14144;DHT22;7152;48.348;10.980;2023-02-01T11:06:11;5.30;99.90
14144;DHT22;7152;48.348;10.980;2023-02-01T11:08:47;5.40;99.90
14144;DHT22;7152;48.348;10.980;2023-02-01T11:11:13;5.30;99.90
14144;DHT22;7152;48.348;10.980;2023-02-01T11:13:40;5.40;99.90
14144;DHT22;7152;48.348;10.980;2023-02-01T11:16:08;5.40;99.90
14144;DHT22;7152;48.348;10.980;2023-02-01T11:18:37;5.40;99.90
14144;DHT22;7152;48.348;10.980;2023-02-01T11:21:04;5.30;99.90
14144;DHT22;7152;48.348;10.980;2023-02-01T11:23:32;5.30;99.90
14144;DHT22;7152;48.348;10.980;2023-02-01T11:26:14;5.20;99.90
14144;DHT22;7152;48.348;10.980;2023-02-01T11:28:52;5.20;99.90
14144;DHT22;7152;48.348;10.980;2023-02-01T11:31:19;5.20;99.90
14144;DHT22;7152;48.348;10.980;2023-02-01T11:34:12;5.10;99.90
14144;DHT22;7152;48.348;10.980;2023-02-01T11:36:37;5.10;99.90
14144;DHT22;7152;48.348;10.980;2023-02-01T11:39:19;5.10;99.90
14144;DHT22;7152;48.348;10.980;2023-02-01T11:44:39;5.30;99.90
14144;DHT22;7152;48.348;10.980;2023-02-01T11:47:28;5.30;99.90
14144;DHT22;7152;48.348;10.980;2023-02-01T11:49:59;5.30;99.90
14144;DHT22;7152;48.348;10.980;2023-02-01T11:52:39;5.40;99.90
14144;DHT22;7152;48.348;10.980;2023-02-01T11:58:36;5.20;99.90
14144;DHT22;7152;48.348;10.980;2023-02-01T12:25:31;5.00;99.90
14144;DHT22;7152;48.348;10.980;2023-02-01T12:28:15;5.00;99.90
14144;DHT22;7152;48.348;10.980;2023-02-01T12:36:36;5.00;99.90
14144;DHT22;7152;48.348;10.980;2023-02-01T12:42:01;5.00;99.90
14144;DHT22;7152;48.348;10.980;2023-02-01T12:44:48;5.10;99.90
14144;DHT22;7152;48.348;10.980;2023-02-01T12:47:45;5.10;99.90
14144;DHT22;7152;48.348;10.980;2023-02-01T12:50:20;5.10;99.90
14144;DHT22;7152;48.348;10.980;2023-02-01T12:52:52;5.10;99.90
14144;DHT22;7152;48.348;10.980;2023-02-01T12:58:27;5.10;99.90
14144;DHT22;7152;48.348;10.980;2023-02-01T13:00:51;5.10;99.90
14144;DHT22;7152;48.348;10.980;2023-02-01T13:03:42;5.10;99.90
14144;DHT22;7152;48.348;10.980;2023-02-01T13:06:18;5.20;99.90
14144;DHT22;7152;48.348;10.980;2023-02-01T13:11:41;5.20;99.90
14144;DHT22;7152;48.348;10.980;2023-02-01T13:16:59;5.20;99.90
14144;DHT22;7152;48.348;10.980;2023-02-01T13:19:52;5.20;99.90
14144;DHT22;7152;48.348;10.980;2023-02-01T13:22:38;5.30;99.90
14144;DHT22;7152;48.348;10.980;2023-02-01T13:27:50;5.30;99.90
14144;DHT22;7152;48.348;10.980;2023-02-01T13:30:23;5.20;99.90
14144;DHT22;7152;48.348;10.980;2023-02-01T13:35:54;5.30;99.90
14144;DHT22;7152;48.348;10.980;2023-02-01T13:44:08;5.20;99.90
14144;DHT22;7152;48.348;10.980;2023-02-01T13:46:41;5.20;99.90
14144;DHT22;7152;48.348;10.980;2023-02-01T13:49:28;5.20;99.90
14144;DHT22;7152;48.348;10.980;2023-02-01T13:51:57;5.20;99.90
14144;DHT22;7152;48.348;10.980;2023-02-01T13:54:36;5.20;99.90
14144;DHT22;7152;48.348;10.980;2023-02-01T13:57:05;5.10;99.90
14144;DHT22;7152;48.348;10.980;2023-02-01T13:59:50;5.10;99.90
14144;DHT22;7152;48.348;10.980;2023-02-01T14:05:08;4.90;99.90
14144;DHT22;7152;48.348;10.980;2023-02-01T14:07:34;4.90;99.90
14144;DHT22;7152;48.348;10.980;2023-02-01T14:13:05;4.80;99.90
14144;DHT22;7152;48.348;10.980;2023-02-01T14:15:37;4.80;99.90
14144;DHT22;7152;48.348;10.980;2023-02-01T14:21:32;4.70;99.90
14144;DHT22;7152;48.348;10.980;2023-02-01T14:24:02;4.70;99.90
14144;DHT22;7152;48.348;10.980;2023-02-01T14:26:49;4.70;99.90
14144;DHT22;7152;48.348;10.980;2023-02-01T14:29:21;4.70;99.90
14144;DHT22;7152;48.348;10.980;2023-02-01T14:31:59;4.60;99.90
14144;DHT22;7152;48.348;10.980;2023-02-01T14:53:16;4.60;99.90
14144;DHT22;7152;48.348;10.980;2023-02-01T14:58:57;4.70;99.90
14144;DHT22;7152;48.348;10.980;2023-02-01T15:01:27;4.70;99.90
14144;DHT22;7152;48.348;10.980;2023-02-01T15:14:34;4.90;99.90
14144;DHT22;7152;48.348;10.980;2023-02-01T15:17:00;4.90;99.90
14144;DHT22;7152;48.348;10.980;2023-02-01T15:19:28;5.00;99.90
14144;DHT22;7152;48.348;10.980;2023-02-01T15:21:56;5.00;99.90
14144;DHT22;7152;48.348;10.980;2023-02-01T15:24:26;5.00;99.90
14144;DHT22;7152;48.348;10.980;2023-02-01T15:26:54;5.00;99.90
14144;DHT22;7152;48.348;10.980;2023-02-01T15:29:21;5.00;99.90
14144;DHT22;7152;48.348;10.980;2023-02-01T15:31:51;5.00;99.90
14144;DHT22;7152;48.348;10.980;2023-02-01T15:34:18;5.00;99.90
14144;DHT22;7152;48.348;10.980;2023-02-01T15:36:45;5.00;99.90
14144;DHT22;7152;48.348;10.980;2023-02-01T15:41:53;5.00;99.90
14144;DHT22;7152;48.348;10.980;2023-02-01T15:46:53;5.00;99.90
14144;DHT22;7152;48.348;10.980;2023-02-01T15:51:47;4.90;99.90
14144;DHT22;7152;48.348;10.980;2023-02-01T15:54:19;5.00;99.90
14144;DHT22;7152;48.348;10.980;2023-02-01T15:56:54;4.90;99.90
14144;DHT22;7152;48.348;10.980;2023-02-01T15:59:23;4.90;99.90
14144;DHT22;7152;48.348;10.980;2023-02-01T16:01:50;4.90;99.90
14144;DHT22;7152;48.348;10.980;2023-02-01T16:04:24;4.80;99.90
14144;DHT22;7152;48.348;10.980;2023-02-01T16:06:59;4.80;99.90
14144;DHT22;7152;48.348;10.980;2023-02-01T16:09:59;4.80;99.90
14144;DHT22;7152;48.348;10.980;2023-02-01T16:12:32;4.80;99.90
14144;DHT22;7152;48.348;10.980;2023-02-01T16:15:00;4.70;99.90
14144;DHT22;7152;48.348;10.980;2023-02-01T16:17:26;4.70;99.90
14144;DHT22;7152;48.348;10.980;2023-02-01T16:19:51;4.70;99.90
14144;DHT22;7152;48.348;10.980;2023-02-01T16:22:17;4.70;99.90
14144;DHT22;7152;48.348;10.980;2023-02-01T16:24:43;4.70;99.90
14144;DHT22;7152;48.348;10.980;2023-02-01T16:27:08;4.60;99.90
14144;DHT22;7152;48.348;10.980;2023-02-01T16:29:34;4.60;99.90
14144;DHT22;7152;48.348;10.980;2023-02-01T16:32:00;4.60;99.90
14144;DHT22;7152;48.348;10.980;2023-02-01T16:34:25;4.60;99.90
14144;DHT22;7152;48.348;10.980;2023-02-01T16:36:51;4.60;99.90
14144;DHT22;7152;48.348;10.980;2023-02-01T16:39:19;4.60;99.90
14144;DHT22;7152;48.348;10.980;2023-02-01T16:41:45;4.60;99.90
14144;DHT22;7152;48.348;10.980;2023-02-01T16:44:11;4.50;99.90
14144;DHT22;7152;48.348;10.980;2023-02-01T16:46:41;4.50;99.90
14144;DHT22;7152;48.348;10.980;2023-02-01T16:49:21;4.60;99.90
14144;DHT22;7152;48.348;10.980;2023-02-01T16:51:49;4.50;99.90
14144;DHT22;7152;48.348;10.980;2023-02-01T16:54:15;4.60;99.90
14144;DHT22;7152;48.348;10.980;2023-02-01T16:56:41;4.50;99.90
14144;DHT22;7152;48.348;10.980;2023-02-01T16:59:08;4.50;99.90
14144;DHT22;7152;48.348;10.980;2023-02-01T17:01:34;4.50;99.90
14144;DHT22;7152;48.348;10.980;2023-02-01T17:04:00;4.50;99.90
14144;DHT22;7152;48.348;10.980;2023-02-01T17:06:26;4.50;99.90
14144;DHT22;7152;48.348;10.980;2023-02-01T17:08:56;4.50;99.90
14144;DHT22;7152;48.348;10.980;2023-02-01T17:11:26;4.50;99.90
14144;DHT22;7152;48.348;10.980;2023-02-01T17:13:52;4.50;99.90
14144;DHT22;7152;48.348;10.980;2023-02-01T17:19:20;4.50;99.90
14144;DHT22;7152;48.348;10.980;2023-02-01T17:21:56;4.50;99.90
14144;DHT22;7152;48.348;10.980;2023-02-01T17:24:26;4.50;99.90
14144;DHT22;7152;48.348;10.980;2023-02-01T17:26:52;4.50;99.90
14144;DHT22;7152;48.348;10.980;2023-02-01T17:29:19;4.50;99.90
14144;DHT22;7152;48.348;10.980;2023-02-01T17:31:47;4.50;99.90
14144;DHT22;7152;48.348;10.980;2023-02-01T17:34:15;4.50;99.90
14144;DHT22;7152;48.348;10.980;2023-02-01T17:36:42;4.50;99.90
14144;DHT22;7152;48.348;10.980;2023-02-01T17:39:08;4.50;99.90
14144;DHT22;7152;48.348;10.980;2023-02-01T17:41:35;4.60;99.90
14144;DHT22;7152;48.348;10.980;2023-02-01T17:44:02;4.50;99.90
14144;DHT22;7152;48.348;10.980;2023-02-01T17:46:30;4.50;99.90
14144;DHT22;7152;48.348;10.980;2023-02-01T17:48:56;4.50;99.90
14144;DHT22;7152;48.348;10.980;2023-02-01T17:51:24;4.50;99.90
14144;DHT22;7152;48.348;10.980;2023-02-01T17:53:51;4.50;99.90
14144;DHT22;7152;48.348;10.980;2023-02-01T17:56:22;4.50;99.90
14144;DHT22;7152;48.348;10.980;2023-02-01T17:58:48;4.50;99.90
14144;DHT22;7152;48.348;10.980;2023-02-01T18:01:18;4.50;99.90
14144;DHT22;7152;48.348;10.980;2023-02-01T18:03:44;4.50;99.90
14144;DHT22;7152;48.348;10.980;2023-02-01T18:06:18;4.50;99.90
14144;DHT22;7152;48.348;10.980;2023-02-01T18:08:44;4.50;99.90
14144;DHT22;7152;48.348;10.980;2023-02-01T18:11:16;4.50;99.90
14144;DHT22;7152;48.348;10.980;2023-02-01T18:13:42;4.50;99.90
14144;DHT22;7152;48.348;10.980;2023-02-01T18:16:18;4.50;99.90
14144;DHT22;7152;48.348;10.980;2023-02-01T18:18:45;4.50;99.90
14144;DHT22;7152;48.348;10.980;2023-02-01T18:21:10;4.50;99.90
14144;DHT22;7152;48.348;10.980;2023-02-01T18:23:36;4.50;99.90
14144;DHT22;7152;48.348;10.980;2023-02-01T18:26:02;4.50;99.90
14144;DHT22;7152;48.348;10.980;2023-02-01T18:28:28;4.50;99.90
14144;DHT22;7152;48.348;10.980;2023-02-01T18:30:54;4.50;99.90
14144;DHT22;7152;48.348;10.980;2023-02-01T18:33:21;4.50;99.90
14144;DHT22;7152;48.348;10.980;2023-02-01T18:35:47;4.50;99.90
14144;DHT22;7152;48.348;10.980;2023-02-01T18:38:13;4.50;99.90
14144;DHT22;7152;48.348;10.980;2023-02-01T18:40:52;4.50;99.90
14144;DHT22;7152;48.348;10.980;2023-02-01T18:43:19;4.50;99.90
14144;DHT22;7152;48.348;10.980;2023-02-01T18:45:46;4.50;99.90
14144;DHT22;7152;48.348;10.980;2023-02-01T18:48:14;4.50;99.90
14144;DHT22;7152;48.348;10.980;2023-02-01T18:50:41;4.40;99.90
14144;DHT22;7152;48.348;10.980;2023-02-01T18:53:15;4.50;99.90
14144;DHT22;7152;48.348;10.980;2023-02-01T18:55:45;4.40;99.90
14144;DHT22;7152;48.348;10.980;2023-02-01T18:58:12;4.50;99.90
14144;DHT22;7152;48.348;10.980;2023-02-01T19:00:38;4.50;99.90
14144;DHT22;7152;48.348;10.980;2023-02-01T19:03:03;4.40;99.90